Time;durP1;ratioP1;P1;durP2;ratioP2;P2;SDS_P1;SDS_P2;PMS_P1;PMS_P2;Temp;Humidity;BMP_temperature;BMP_pressure;BME280_temperature;BME280_humidity;BME280_pressure;Samples;Min_cycle;Max_cycle;Signal;HPM_P1;HPM_P2
2022/10/17 00:02:00;;;;;;;60.25;35.33;;;;;;;;;;10438203;28;20426;-88
2022/10/17 00:07:02;;;;;;;60.47;35.80;;;;;;;;;;10438076;28;20931;-88
2022/10/17 00:12:04;;;;;;;59.50;34.70;;;;;;;;;;10422512;28;20516;-89
2022/10/17 00:17:08;;;;;;;62.67;35.95;;;;;;;;;;10441649;28;20410;-89
2022/10/17 00:22:09;;;;;;;58.53;34.80;;;;;;;;;;10442225;28;20404;-89
2022/10/17 00:27:11;;;;;;;60.20;34.77;;;;;;;;;;10434299;28;20392;-88
2022/10/17 00:32:15;;;;;;;63.97;36.00;;;;;;;;;;10442206;28;20511;-90
2022/10/17 00:37:16;;;;;;;63.17;36.03;;;;;;;;;;10437771;28;20422;-89
2022/10/17 00:42:18;;;;;;;65.07;37.07;;;;;;;;;;10431862;28;20490;-89
2022/10/17 00:47:22;;;;;;;65.22;36.47;;;;;;;;;;10443079;28;20506;-88
2022/10/17 00:52:28;;;;;;;66.47;37.42;;;;;;;;;;10448014;28;20427;-90
2022/10/17 00:57:32;;;;;;;69.80;37.80;;;;;;;;;;10446156;28;20426;-90
2022/10/17 01:02:35;;;;;;;62.08;36.35;;;;;;;;;;10445258;28;20422;-88
2022/10/17 01:07:39;;;;;;;65.95;36.97;;;;;;;;;;10441542;28;20410;-87
2022/10/17 01:13:00;;;;;;;65.73;36.20;;;;;;;;;;10448892;28;20455;-89
2022/10/17 01:18:13;;;;;;;64.73;36.40;;;;;;;;;;10447571;28;20486;-88
2022/10/17 01:23:30;;;;;;;63.88;36.22;;;;;;;;;;10449183;28;20411;-88
2022/10/17 01:28:53;;;;;;;67.38;36.03;;;;;;;;;;10449034;28;20419;-89
2022/10/17 01:34:03;;;;;;;61.23;34.57;;;;;;;;;;10444159;28;21025;-90
2022/10/17 01:39:15;;;;;;;62.38;34.65;;;;;;;;;;10446558;28;20541;-89
2022/10/17 01:44:23;;;;;;;65.60;35.03;;;;;;;;;;10437095;28;20404;-89
2022/10/17 01:49:29;;;;;;;67.17;35.57;;;;;;;;;;10438803;28;20925;-90
2022/10/17 01:54:37;;;;;;;61.65;34.90;;;;;;;;;;10439953;28;21344;-89
2022/10/17 01:59:41;;;;;;;64.03;35.20;;;;;;;;;;10434255;28;20448;-89
2022/10/17 02:04:46;;;;;;;60.53;34.00;;;;;;;;;;10444610;28;20403;-90
2022/10/17 02:09:48;;;;;;;60.90;34.40;;;;;;;;;;10424269;28;20424;-89
2022/10/17 02:15:05;;;;;;;62.47;35.25;;;;;;;;;;10430865;28;20484;-89
2022/10/17 02:20:20;;;;;;;59.97;33.95;;;;;;;;;;10423264;28;20414;-89
2022/10/17 02:25:29;;;;;;;59.93;34.07;;;;;;;;;;10438367;28;21063;-90
2022/10/17 02:30:37;;;;;;;59.75;33.47;;;;;;;;;;10438160;28;20512;-90
2022/10/17 02:35:46;;;;;;;60.75;33.20;;;;;;;;;;10421304;28;20405;-90
2022/10/17 02:40:50;;;;;;;63.63;34.53;;;;;;;;;;10430805;28;20879;-89
2022/10/17 02:45:53;;;;;;;63.88;34.08;;;;;;;;;;10447144;28;20439;-89
2022/10/17 02:51:04;;;;;;;58.58;33.10;;;;;;;;;;10443447;28;20524;-90
2022/10/17 02:56:14;;;;;;;58.42;33.05;;;;;;;;;;10436383;28;20480;-89
2022/10/17 03:01:17;;;;;;;56.75;33.08;;;;;;;;;;10417932;28;20794;-90
2022/10/17 03:06:20;;;;;;;60.08;33.35;;;;;;;;;;10455575;22;20426;-87
2022/10/17 03:11:22;;;;;;;56.80;31.50;;;;;;;;;;10462270;28;20426;-88
2022/10/17 03:16:24;;;;;;;56.88;31.90;;;;;;;;;;10467873;28;20433;-86
2022/10/17 03:21:28;;;;;;;56.53;33.08;;;;;;;;;;10459849;28;20486;-87
2022/10/17 03:26:30;;;;;;;57.67;31.65;;;;;;;;;;10462229;28;20477;-87
2022/10/17 03:31:32;;;;;;;55.15;31.08;;;;;;;;;;10464574;28;20496;-86
2022/10/17 03:36:36;;;;;;;55.42;32.13;;;;;;;;;;10468447;28;20402;-87
2022/10/17 03:41:37;;;;;;;54.45;30.83;;;;;;;;;;10457642;28;20469;-87
2022/10/17 03:46:39;;;;;;;57.33;31.67;;;;;;;;;;10459395;28;20921;-87
2022/10/17 03:51:42;;;;;;;56.10;31.07;;;;;;;;;;10463300;28;20428;-87
2022/10/17 03:56:44;;;;;;;53.72;31.38;;;;;;;;;;10460968;28;20404;-87
2022/10/17 04:01:46;;;;;;;57.23;31.93;;;;;;;;;;10461874;28;20493;-85
2022/10/17 04:06:49;;;;;;;58.95;31.67;;;;;;;;;;10457190;28;20793;-87
2022/10/17 04:11:51;;;;;;;57.97;31.77;;;;;;;;;;10456544;28;20426;-88
2022/10/17 04:16:53;;;;;;;57.30;32.17;;;;;;;;;;10464093;28;20865;-87
2022/10/17 04:21:56;;;;;;;61.17;31.88;;;;;;;;;;10461581;28;20394;-88
2022/10/17 04:26:58;;;;;;;62.38;32.65;;;;;;;;;;10455612;28;20394;-87
2022/10/17 04:32:02;;;;;;;61.17;32.67;;;;;;;;;;10435145;28;20921;-89
2022/10/17 04:37:06;;;;;;;62.92;32.90;;;;;;;;;;10453529;28;20808;-88
2022/10/17 04:42:08;;;;;;;62.72;33.30;;;;;;;;;;10454282;28;20407;-88
2022/10/17 04:47:10;;;;;;;62.03;34.10;;;;;;;;;;10442648;28;20423;-86
2022/10/17 04:52:13;;;;;;;63.83;33.17;;;;;;;;;;10425938;28;20526;-86
2022/10/17 04:57:15;;;;;;;59.78;32.38;;;;;;;;;;10457006;28;20403;-88
2022/10/17 05:02:17;;;;;;;60.70;32.30;;;;;;;;;;10460174;28;20425;-88
2022/10/17 05:07:20;;;;;;;54.42;30.90;;;;;;;;;;10459461;28;20413;-89
2022/10/17 05:12:22;;;;;;;56.05;30.30;;;;;;;;;;10449386;28;20422;-87
2022/10/17 05:17:24;;;;;;;51.13;29.17;;;;;;;;;;10457705;28;20985;-88
2022/10/17 05:22:27;;;;;;;51.38;29.80;;;;;;;;;;10455138;28;20513;-88
2022/10/17 05:27:29;;;;;;;56.97;31.57;;;;;;;;;;10445485;28;20490;-86
2022/10/17 05:32:31;;;;;;;57.58;31.27;;;;;;;;;;10436135;28;20453;-88
2022/10/17 05:37:34;;;;;;;56.10;30.08;;;;;;;;;;10458097;28;20429;-88
2022/10/17 05:42:36;;;;;;;61.47;32.55;;;;;;;;;;10454916;28;20403;-88
2022/10/17 05:47:38;;;;;;;53.63;29.75;;;;;;;;;;10462812;28;20407;-88
2022/10/17 05:52:41;;;;;;;57.50;30.27;;;;;;;;;;10456663;28;20981;-86
2022/10/17 05:57:43;;;;;;;53.10;29.38;;;;;;;;;;10459364;28;20430;-88
2022/10/17 06:02:45;;;;;;;57.63;30.93;;;;;;;;;;10472052;28;20508;-88
2022/10/17 06:07:51;;;;;;;54.47;30.27;;;;;;;;;;10478440;28;20398;-88
2022/10/17 06:12:53;;;;;;;57.47;30.27;;;;;;;;;;10464598;28;20773;-86
2022/10/17 06:17:55;;;;;;;55.45;29.25;;;;;;;;;;10463480;28;20388;-88
2022/10/17 06:22:58;;;;;;;57.20;31.40;;;;;;;;;;10472682;28;20510;-88
2022/10/17 06:28:00;;;;;;;54.45;30.35;;;;;;;;;;10464944;28;20493;-88
2022/10/17 06:33:02;;;;;;;56.83;31.47;;;;;;;;;;10460104;28;20510;-90
2022/10/17 06:38:05;;;;;;;59.20;31.53;;;;;;;;;;10463068;28;20504;-89
2022/10/17 06:43:07;;;;;;;56.57;31.37;;;;;;;;;;10469764;28;20425;-88
2022/10/17 06:48:09;;;;;;;57.97;32.97;;;;;;;;;;10461188;28;20390;-88
2022/10/17 06:53:12;;;;;;;56.78;31.35;;;;;;;;;;10458139;28;20527;-88
2022/10/17 06:58:14;;;;;;;61.73;32.67;;;;;;;;;;10461111;28;20394;-87
2022/10/17 07:03:16;;;;;;;60.20;32.08;;;;;;;;;;10460648;28;20411;-88
2022/10/17 07:08:19;;;;;;;59.00;31.63;;;;;;;;;;10463341;28;20753;-88
2022/10/17 07:13:21;;;;;;;57.00;31.65;;;;;;;;;;10462079;28;20505;-88
2022/10/17 07:18:23;;;;;;;61.27;32.77;;;;;;;;;;10459039;28;20519;-88
2022/10/17 07:23:26;;;;;;;58.70;32.27;;;;;;;;;;10458847;28;20967;-89
2022/10/17 07:28:29;;;;;;;59.22;32.60;;;;;;;;;;10461024;28;20643;-88
2022/10/17 07:33:31;;;;;;;62.23;33.90;;;;;;;;;;10460868;28;20920;-88
2022/10/17 07:38:35;;;;;;;60.47;32.22;;;;;;;;;;10459084;28;20393;-88
2022/10/17 07:43:37;;;;;;;65.05;33.65;;;;;;;;;;10460596;28;20407;-88
2022/10/17 07:48:40;;;;;;;60.25;33.28;;;;;;;;;;10466228;28;20409;-88
2022/10/17 07:53:43;;;;;;;55.63;30.95;;;;;;;;;;10455207;28;20428;-88
2022/10/17 07:58:46;;;;;;;55.90;31.80;;;;;;;;;;10460855;28;20873;-88
2022/10/17 08:03:48;;;;;;;55.90;29.88;;;;;;;;;;10457273;28;20489;-88
2022/10/17 08:08:52;;;;;;;53.28;30.27;;;;;;;;;;10457471;28;20895;-88
2022/10/17 08:13:54;;;;;;;51.92;30.55;;;;;;;;;;10456785;28;20462;-88
2022/10/17 08:18:56;;;;;;;47.58;27.13;;;;;;;;;;10458865;28;20442;-88
2022/10/17 08:24:00;;;;;;;44.60;26.07;;;;;;;;;;10459215;28;20431;-88
2022/10/17 08:29:02;;;;;;;45.65;25.88;;;;;;;;;;10455842;28;20475;-89
2022/10/17 08:34:04;;;;;;;45.83;26.90;;;;;;;;;;10459667;28;20697;-88
2022/10/17 08:39:07;;;;;;;47.65;27.17;;;;;;;;;;10454876;28;20490;-88
2022/10/17 08:44:18;;;;;;;43.63;26.88;;;;;;;;;;10460754;28;20403;-87
2022/10/17 08:49:26;;;;;;;49.50;28.43;;;;;;;;;;10452206;28;20984;-88
2022/10/17 08:54:38;;;;;;;54.30;29.13;;;;;;;;;;10455022;28;20866;-88
2022/10/17 08:59:40;;;;;;;50.97;29.90;;;;;;;;;;10454787;28;21575;-88
2022/10/17 09:04:53;;;;;;;49.97;29.13;;;;;;;;;;10460141;28;20411;-89
2022/10/17 09:10:02;;;;;;;53.90;29.23;;;;;;;;;;10463775;28;20496;-88
2022/10/17 09:15:34;;;;;;;51.47;29.90;;;;;;;;;;10462044;28;20398;-89
2022/10/17 09:20:40;;;;;;;53.45;28.92;;;;;;;;;;10468722;28;20968;-88
2022/10/17 09:25:46;;;;;;;52.67;29.27;;;;;;;;;;10466768;28;20412;-89
2022/10/17 09:30:51;;;;;;;50.17;28.98;;;;;;;;;;10464313;28;20506;-89
2022/10/17 09:35:54;;;;;;;50.80;29.17;;;;;;;;;;10463918;28;20404;-89
2022/10/17 09:41:00;;;;;;;45.63;26.87;;;;;;;;;;10466025;28;20688;-88
2022/10/17 09:46:09;;;;;;;44.90;28.45;;;;;;;;;;10468214;28;20507;-89
2022/10/17 09:51:12;;;;;;;46.40;27.60;;;;;;;;;;10461184;28;20435;-86
2022/10/17 09:56:17;;;;;;;49.53;28.40;;;;;;;;;;10463665;28;20491;-88
2022/10/17 10:01:22;;;;;;;50.87;29.43;;;;;;;;;;10460229;28;21002;-89
2022/10/17 10:06:24;;;;;;;49.50;29.37;;;;;;;;;;10462073;28;20411;-89
2022/10/17 10:11:46;;;;;;;53.43;30.57;;;;;;;;;;10461385;28;20427;-89
2022/10/17 10:16:49;;;;;;;50.20;31.27;;;;;;;;;;10461342;28;20874;-88
2022/10/17 10:21:56;;;;;;;52.10;30.75;;;;;;;;;;10466447;28;20485;-89
2022/10/17 10:27:02;;;;;;;51.90;30.93;;;;;;;;;;10464741;28;20756;-88
2022/10/17 10:32:10;;;;;;;55.53;30.67;;;;;;;;;;10464712;28;20989;-86
2022/10/17 10:37:20;;;;;;;53.83;30.10;;;;;;;;;;10453242;28;20755;-89
2022/10/17 10:42:26;;;;;;;50.57;29.83;;;;;;;;;;10462134;28;20954;-88
2022/10/17 10:47:29;;;;;;;54.95;30.90;;;;;;;;;;10461743;28;20603;-88
2022/10/17 10:52:39;;;;;;;54.00;30.55;;;;;;;;;;10461545;28;20983;-89
2022/10/17 10:57:45;;;;;;;51.27;30.17;;;;;;;;;;10457264;28;20403;-88
2022/10/17 11:02:58;;;;;;;49.00;29.20;;;;;;;;;;10463129;28;20416;-89
2022/10/17 11:08:06;;;;;;;50.20;29.40;;;;;;;;;;10458544;28;20485;-89
2022/10/17 11:13:16;;;;;;;48.17;28.67;;;;;;;;;;10458586;28;20421;-88
2022/10/17 11:18:24;;;;;;;51.53;30.77;;;;;;;;;;10457859;28;20680;-88
2022/10/17 11:23:34;;;;;;;48.80;28.73;;;;;;;;;;10469456;28;20402;-89
2022/10/17 11:28:37;;;;;;;46.17;28.50;;;;;;;;;;10465313;28;20404;-89
2022/10/17 11:33:46;;;;;;;44.33;27.92;;;;;;;;;;10459829;28;20504;-88
2022/10/17 11:38:50;;;;;;;49.47;28.37;;;;;;;;;;10459730;28;20542;-88
2022/10/17 11:43:58;;;;;;;44.83;28.17;;;;;;;;;;10461864;28;20407;-89
2022/10/17 11:49:07;;;;;;;49.97;28.97;;;;;;;;;;10460126;28;20606;-88
2022/10/17 11:54:14;;;;;;;46.27;28.20;;;;;;;;;;10449258;28;20420;-88
2022/10/17 11:59:48;;;;;;;47.60;28.13;;;;;;;;;;10454614;28;20445;-89
2022/10/17 12:05:01;;;;;;;46.37;27.80;;;;;;;;;;10456551;28;20524;-88
2022/10/17 12:10:15;;;;;;;46.42;28.27;;;;;;;;;;10457721;28;20422;-88
2022/10/17 12:15:32;;;;;;;38.95;23.98;;;;;;;;;;10452980;28;20921;-88
2022/10/17 12:20:37;;;;;;;47.50;27.25;;;;;;;;;;10452828;28;20464;-89
2022/10/17 12:25:49;;;;;;;44.55;27.05;;;;;;;;;;10436142;28;20491;-89
2022/10/17 12:30:56;;;;;;;41.05;25.30;;;;;;;;;;10460556;28;20502;-89
2022/10/17 12:36:37;;;;;;;45.67;27.47;;;;;;;;;;10460650;28;20513;-88
2022/10/17 12:41:54;;;;;;;41.10;25.83;;;;;;;;;;10454699;28;20498;-89
2022/10/17 12:46:58;;;;;;;41.40;25.83;;;;;;;;;;10459226;28;20403;-89
2022/10/17 12:52:19;;;;;;;45.27;27.07;;;;;;;;;;10451704;28;20502;-88
2022/10/17 12:57:27;;;;;;;40.85;25.65;;;;;;;;;;10447531;28;20521;-89
2022/10/17 13:02:31;;;;;;;38.30;24.92;;;;;;;;;;10448785;28;20461;-89
2022/10/17 13:07:35;;;;;;;40.00;24.92;;;;;;;;;;10448623;28;20408;-88
2022/10/17 13:12:38;;;;;;;40.25;25.45;;;;;;;;;;10447121;28;20975;-88
2022/10/17 13:17:42;;;;;;;41.37;25.67;;;;;;;;;;10446707;28;20427;-89
2022/10/17 13:22:48;;;;;;;40.65;26.40;;;;;;;;;;10459894;28;20404;-87
2022/10/17 13:27:52;;;;;;;39.38;26.05;;;;;;;;;;10454547;28;20439;-89
2022/10/17 13:32:56;;;;;;;41.15;26.02;;;;;;;;;;10459415;28;20415;-89
2022/10/17 13:38:02;;;;;;;40.27;25.47;;;;;;;;;;10463745;28;20922;-89
2022/10/17 13:43:05;;;;;;;39.70;27.07;;;;;;;;;;10457815;28;20406;-89
2022/10/17 13:48:19;;;;;;;41.27;25.70;;;;;;;;;;10445543;28;20408;-88
2022/10/17 13:53:26;;;;;;;42.20;25.90;;;;;;;;;;10459277;28;20430;-89
2022/10/17 13:58:33;;;;;;;44.43;27.27;;;;;;;;;;10462702;28;20491;-89
2022/10/17 14:03:38;;;;;;;42.30;25.65;;;;;;;;;;10452610;28;20501;-89
2022/10/17 14:08:47;;;;;;;40.63;25.48;;;;;;;;;;10453723;28;20481;-89
2022/10/17 14:13:50;;;;;;;42.00;26.03;;;;;;;;;;10461354;28;20520;-89
2022/10/17 14:18:54;;;;;;;44.20;26.15;;;;;;;;;;10457080;28;20405;-89
2022/10/17 14:24:26;;;;;;;40.50;25.92;;;;;;;;;;10457399;28;20908;-89
2022/10/17 14:29:31;;;;;;;42.65;26.67;;;;;;;;;;10453058;28;20466;-89
2022/10/17 14:34:38;;;;;;;45.08;26.95;;;;;;;;;;10447685;28;20785;-89
2022/10/17 14:39:39;;;;;;;39.83;25.38;;;;;;;;;;10448717;28;20835;-89
2022/10/17 14:44:41;;;;;;;40.17;24.98;;;;;;;;;;10462233;28;20410;-89
2022/10/17 14:49:50;;;;;;;42.33;26.33;;;;;;;;;;10447485;28;20420;-89
2022/10/17 14:54:52;;;;;;;40.83;25.07;;;;;;;;;;10442430;28;20434;-89
2022/10/17 14:59:56;;;;;;;40.50;24.57;;;;;;;;;;10446917;28;20494;-89
2022/10/17 15:04:59;;;;;;;39.03;24.58;;;;;;;;;;10449520;28;20424;-89
2022/10/17 15:10:01;;;;;;;36.25;23.23;;;;;;;;;;10502141;22;20488;-90
2022/10/17 15:15:03;;;;;;;38.75;23.77;;;;;;;;;;10501542;28;20513;-90
2022/10/17 15:20:13;;;;;;;38.58;24.15;;;;;;;;;;10504146;28;20480;-89
2022/10/17 15:25:14;;;;;;;43.20;25.83;;;;;;;;;;10506222;28;20487;-90
2022/10/17 15:30:20;;;;;;;36.20;22.97;;;;;;;;;;10498473;28;20491;-91
2022/10/17 15:35:24;;;;;;;35.90;23.20;;;;;;;;;;10485912;28;20477;-88
2022/10/17 15:40:28;;;;;;;36.10;23.17;;;;;;;;;;10483814;28;20483;-89
2022/10/17 15:45:31;;;;;;;36.50;23.50;;;;;;;;;;10493173;28;20560;-89
2022/10/17 15:50:34;;;;;;;32.17;21.48;;;;;;;;;;10476522;28;20505;-89
2022/10/17 15:55:36;;;;;;;41.97;23.87;;;;;;;;;;10502101;28;20413;-88
2022/10/17 16:00:39;;;;;;;35.35;23.25;;;;;;;;;;10492989;28;21784;-90
2022/10/17 16:05:42;;;;;;;38.77;22.53;;;;;;;;;;10498099;28;20404;-90
2022/10/17 16:10:44;;;;;;;96.53;26.63;;;;;;;;;;10486991;28;20412;-89
2022/10/17 16:15:46;;;;;;;34.15;21.83;;;;;;;;;;10494480;28;20554;-89
2022/10/17 16:20:49;;;;;;;35.20;21.88;;;;;;;;;;10481474;28;20404;-89
2022/10/17 16:25:51;;;;;;;35.00;21.87;;;;;;;;;;10490811;28;20420;-89
2022/10/17 16:30:54;;;;;;;62.20;24.77;;;;;;;;;;10491145;28;20416;-89
2022/10/17 16:35:57;;;;;;;35.92;22.83;;;;;;;;;;10491379;28;20418;-89
2022/10/17 16:41:00;;;;;;;36.08;21.38;;;;;;;;;;10495565;28;20404;-90
2022/10/17 16:46:03;;;;;;;36.08;21.85;;;;;;;;;;10495420;28;20529;-90
2022/10/17 16:51:07;;;;;;;41.15;23.35;;;;;;;;;;10484332;28;20413;-90
2022/10/17 16:56:12;;;;;;;35.03;21.77;;;;;;;;;;10491258;28;20414;-87
2022/10/17 17:01:16;;;;;;;36.50;22.90;;;;;;;;;;10480585;28;20991;-89
2022/10/17 17:06:23;;;;;;;49.93;22.77;;;;;;;;;;10486896;28;20412;-89
2022/10/17 17:11:26;;;;;;;38.40;22.63;;;;;;;;;;10467641;28;20498;-88
2022/10/17 17:16:29;;;;;;;35.13;22.52;;;;;;;;;;10461464;28;20447;-89
2022/10/17 17:21:34;;;;;;;41.20;22.90;;;;;;;;;;10457654;28;20503;-90
2022/10/17 17:26:36;;;;;;;40.97;22.83;;;;;;;;;;10455623;28;20468;-89
2022/10/17 17:31:38;;;;;;;39.08;22.60;;;;;;;;;;10456354;28;20495;-89
2022/10/17 17:36:42;;;;;;;36.50;23.25;;;;;;;;;;10455048;28;20402;-89
2022/10/17 17:41:44;;;;;;;39.58;24.10;;;;;;;;;;10485893;28;20825;-89
2022/10/17 17:46:46;;;;;;;43.73;24.87;;;;;;;;;;10487241;28;20419;-88
2022/10/17 17:51:50;;;;;;;39.55;23.85;;;;;;;;;;10477342;28;20413;-90
2022/10/17 17:56:52;;;;;;;41.60;24.70;;;;;;;;;;10482193;28;20439;-90
2022/10/17 18:01:53;;;;;;;43.70;25.43;;;;;;;;;;10457340;28;20429;-88
2022/10/17 18:06:57;;;;;;;41.97;24.67;;;;;;;;;;10471933;28;20400;-87
2022/10/17 18:11:58;;;;;;;44.67;24.95;;;;;;;;;;10467363;28;20411;-89
2022/10/17 18:17:00;;;;;;;44.03;25.80;;;;;;;;;;10454257;28;20972;-89
2022/10/17 18:22:03;;;;;;;43.20;25.42;;;;;;;;;;10475886;28;20508;-89
2022/10/17 18:27:05;;;;;;;49.33;28.05;;;;;;;;;;10492542;28;20438;-88
2022/10/17 18:32:07;;;;;;;44.65;26.30;;;;;;;;;;10496859;28;21271;-88
2022/10/17 18:37:10;;;;;;;45.13;26.70;;;;;;;;;;10492650;28;21171;-88
2022/10/17 18:42:12;;;;;;;49.70;28.48;;;;;;;;;;10491822;28;21109;-88
2022/10/17 18:47:14;;;;;;;43.22;28.17;;;;;;;;;;10506952;28;20451;-90
2022/10/17 18:52:18;;;;;;;50.03;28.95;;;;;;;;;;10494851;28;20992;-88
2022/10/17 18:57:19;;;;;;;50.38;30.65;;;;;;;;;;10493309;28;20923;-88
2022/10/17 19:02:22;;;;;;;50.08;29.08;;;;;;;;;;10491918;28;20413;-89
2022/10/17 19:07:25;;;;;;;48.22;30.30;;;;;;;;;;10489503;28;20994;-89
2022/10/17 19:12:28;;;;;;;50.33;30.73;;;;;;;;;;10499734;28;20416;-89
2022/10/17 19:17:30;;;;;;;51.25;30.45;;;;;;;;;;10469161;28;20412;-89
2022/10/17 19:22:33;;;;;;;50.75;30.52;;;;;;;;;;10500434;28;20459;-89
2022/10/17 19:27:35;;;;;;;53.07;31.43;;;;;;;;;;10492929;28;20511;-88
2022/10/17 19:32:37;;;;;;;52.43;30.17;;;;;;;;;;10492614;28;20412;-89
2022/10/17 19:37:40;;;;;;;53.75;30.80;;;;;;;;;;10490061;28;20495;-87
2022/10/17 19:42:42;;;;;;;52.63;30.85;;;;;;;;;;10495950;28;20775;-88
2022/10/17 19:47:44;;;;;;;46.90;28.85;;;;;;;;;;10485816;28;20578;-87
2022/10/17 19:52:48;;;;;;;56.30;31.15;;;;;;;;;;10460126;28;20424;-91
2022/10/17 19:57:49;;;;;;;54.25;32.25;;;;;;;;;;10451033;28;20472;-87
2022/10/17 20:02:51;;;;;;;54.83;32.20;;;;;;;;;;10457379;28;20420;-88
2022/10/17 20:07:54;;;;;;;55.78;32.80;;;;;;;;;;10444202;28;20417;-87
2022/10/17 20:12:56;;;;;;;57.40;33.30;;;;;;;;;;10454816;28;20557;-89
2022/10/17 20:17:58;;;;;;;58.50;33.70;;;;;;;;;;10458254;28;20914;-90
2022/10/17 20:23:02;;;;;;;59.60;34.15;;;;;;;;;;10487959;28;20497;-90
2022/10/17 20:28:04;;;;;;;59.55;32.95;;;;;;;;;;10477750;28;20431;-91
2022/10/17 20:33:06;;;;;;;57.07;32.80;;;;;;;;;;10458844;28;20451;-90
2022/10/17 20:38:09;;;;;;;56.47;33.37;;;;;;;;;;10453267;28;20432;-90
2022/10/17 20:43:13;;;;;;;60.27;33.57;;;;;;;;;;10448563;28;20496;-89
2022/10/17 20:48:15;;;;;;;59.40;32.92;;;;;;;;;;10446624;28;20405;-89
2022/10/17 20:53:20;;;;;;;62.63;36.53;;;;;;;;;;10443309;28;20490;-88
2022/10/17 20:58:22;;;;;;;62.72;35.80;;;;;;;;;;10460008;28;20417;-87
2022/10/17 21:03:24;;;;;;;63.25;35.40;;;;;;;;;;10468127;28;20425;-89
2022/10/17 21:08:27;;;;;;;62.67;34.28;;;;;;;;;;10459449;28;20408;-89
2022/10/17 21:13:29;;;;;;;60.27;35.00;;;;;;;;;;10464500;28;20503;-89
2022/10/17 21:18:31;;;;;;;62.67;34.97;;;;;;;;;;10463258;28;20469;-89
2022/10/17 21:23:34;;;;;;;59.22;35.28;;;;;;;;;;10459558;28;20535;-90
2022/10/17 21:28:37;;;;;;;60.23;34.87;;;;;;;;;;10464350;28;20485;-89
2022/10/17 21:33:40;;;;;;;60.73;35.70;;;;;;;;;;10469442;28;20417;-88
2022/10/17 21:38:45;;;;;;;64.65;35.78;;;;;;;;;;10462527;28;20487;-90
2022/10/17 21:43:47;;;;;;;57.53;33.65;;;;;;;;;;10460185;28;20398;-90
2022/10/17 21:48:50;;;;;;;62.70;34.33;;;;;;;;;;10481285;28;20493;-90
2022/10/17 21:53:55;;;;;;;61.90;34.83;;;;;;;;;;10481998;28;20418;-89
2022/10/17 21:58:58;;;;;;;60.50;34.37;;;;;;;;;;10479974;28;20401;-89
2022/10/17 22:04:03;;;;;;;60.47;33.90;;;;;;;;;;10479950;28;20414;-89
2022/10/17 22:09:09;;;;;;;60.30;33.63;;;;;;;;;;10461326;28;20406;-91
2022/10/17 22:14:13;;;;;;;58.83;33.17;;;;;;;;;;10477561;28;20777;-89
2022/10/17 22:19:17;;;;;;;62.50;34.60;;;;;;;;;;10477621;28;20490;-89
2022/10/17 22:24:21;;;;;;;67.80;34.42;;;;;;;;;;10474975;28;20398;-90
2022/10/17 22:29:23;;;;;;;59.15;33.88;;;;;;;;;;10476584;28;20402;-90
2022/10/17 22:34:25;;;;;;;65.65;35.00;;;;;;;;;;10482582;28;21108;-90
2022/10/17 22:39:28;;;;;;;64.05;35.25;;;;;;;;;;10480325;28;20402;-89
2022/10/17 22:44:30;;;;;;;59.10;33.65;;;;;;;;;;10460364;28;20394;-90
2022/10/17 22:49:33;;;;;;;62.67;34.67;;;;;;;;;;10479941;28;20517;-90
2022/10/17 22:54:36;;;;;;;61.88;33.47;;;;;;;;;;10478982;28;20429;-88
2022/10/17 22:59:38;;;;;;;62.20;33.53;;;;;;;;;;10480376;28;20489;-90
2022/10/17 23:04:40;;;;;;;61.75;33.42;;;;;;;;;;10479586;28;20428;-89
2022/10/17 23:09:44;;;;;;;60.63;33.43;;;;;;;;;;10478335;28;20516;-90
2022/10/17 23:14:46;;;;;;;59.63;33.20;;;;;;;;;;10480729;28;20426;-89
2022/10/17 23:19:47;;;;;;;61.10;33.97;;;;;;;;;;10476811;28;20769;-88
2022/10/17 23:24:51;;;;;;;55.65;32.63;;;;;;;;;;10479834;28;20394;-88
2022/10/17 23:29:53;;;;;;;59.00;32.70;;;;;;;;;;10479273;28;20410;-89
2022/10/17 23:34:54;;;;;;;58.22;31.77;;;;;;;;;;10477864;28;20426;-89
2022/10/17 23:39:57;;;;;;;57.95;32.72;;;;;;;;;;10473696;28;20416;-89
2022/10/17 23:44:59;;;;;;;58.13;32.50;;;;;;;;;;10472872;28;20488;-89
2022/10/17 23:50:01;;;;;;;59.73;32.07;;;;;;;;;;10476248;28;20883;-89
2022/10/17 23:55:05;;;;;;;59.13;33.55;;;;;;;;;;10462339;28;20783;-89
